Time;durP1;ratioP1;P1;durP2;ratioP2;P2;SDS_P1;SDS_P2;PMS_P1;PMS_P2;Temp;Humidity;BMP_temperature;BMP_pressure;BME280_temperature;BME280_humidity;BME280_pressure;Samples;Min_cycle;Max_cycle;Signal;HPM_P1;HPM_P2
2022/06/17 00:02:12;;;;;;;9.90;9.10;;;25.20;99.90;;;;;;5053317;28;20017;-76
2022/06/17 00:04:38;;;;;;;10.52;9.43;;;25.10;99.90;;;;;;5053166;28;20104;-75
2022/06/17 00:07:10;;;;;;;12.45;8.85;;;25.10;99.90;;;;;;5053375;28;20067;-76
2022/06/17 00:09:37;;;;;;;9.65;8.65;;;25.10;99.90;;;;;;5053245;28;20033;-76
2022/06/17 00:12:06;;;;;;;10.68;9.57;;;25.10;99.90;;;;;;5053147;28;20032;-75
2022/06/17 00:15:11;;;;;;;10.20;8.93;;;25.00;99.90;;;;;;5052941;28;20040;-75
2022/06/17 00:17:22;;;;;;;11.45;9.05;;;25.00;99.90;;;;;;5052899;28;20033;-75
2022/06/17 00:19:47;;;;;;;10.23;8.90;;;24.90;99.90;;;;;;5052946;28;20430;-75
2022/06/17 00:22:14;;;;;;;11.80;10.38;;;24.90;99.90;;;;;;5051700;28;20040;-75
2022/06/17 00:24:39;;;;;;;12.60;10.70;;;24.90;99.90;;;;;;5052799;28;20021;-75
2022/06/17 00:27:09;;;;;;;10.52;9.50;;;24.90;99.90;;;;;;5052867;28;20083;-75
2022/06/17 00:29:34;;;;;;;12.38;9.80;;;24.80;99.90;;;;;;5052393;28;20112;-76
2022/06/17 00:32:00;;;;;;;10.48;9.63;;;24.80;99.90;;;;;;5051523;28;20120;-76
2022/06/17 00:34:26;;;;;;;10.70;9.38;;;24.80;99.90;;;;;;5052072;28;20021;-76
2022/06/17 00:36:56;;;;;;;9.82;8.93;;;24.80;99.90;;;;;;5051242;28;20079;-75
2022/06/17 00:39:27;;;;;;;10.90;9.80;;;24.80;99.90;;;;;;5052639;28;20368;-75
2022/06/17 00:41:58;;;;;;;10.82;9.65;;;24.80;99.90;;;;;;5052344;28;20146;-75
2022/06/17 00:45:03;;;;;;;10.15;9.25;;;24.70;99.90;;;;;;5051987;28;20021;-75
2022/06/17 00:47:37;;;;;;;11.90;9.55;;;24.70;99.90;;;;;;5052319;28;20021;-75
2022/06/17 00:50:32;;;;;;;11.18;10.18;;;24.60;99.90;;;;;;5052549;28;20025;-75
2022/06/17 00:53:14;;;;;;;10.43;9.45;;;24.70;99.90;;;;;;5052304;28;20025;-75
2022/06/17 00:55:51;;;;;;;15.70;10.05;;;24.60;99.90;;;;;;5052410;28;20025;-75
2022/06/17 00:58:25;;;;;;;10.18;9.20;;;24.60;99.90;;;;;;5051985;28;20045;-75
2022/06/17 01:00:54;;;;;;;11.95;9.63;;;24.60;99.90;;;;;;5052217;28;20021;-75
2022/06/17 01:03:36;;;;;;;11.48;10.48;;;24.60;99.90;;;;;;5052068;28;20497;-75
2022/06/17 01:06:10;;;;;;;10.93;9.48;;;24.60;99.90;;;;;;5050852;28;20045;-76
2022/06/17 01:11:28;;;;;;;9.93;9.00;;;24.70;99.90;;;;;;5052253;28;20075;-75
2022/06/17 01:13:54;;;;;;;10.68;9.57;;;24.70;99.90;;;;;;5051899;28;20052;-75
2022/06/17 01:16:26;;;;;;;10.30;9.20;;;24.70;99.90;;;;;;5050589;28;20098;-75
2022/06/17 01:18:54;;;;;;;11.20;9.77;;;24.70;99.90;;;;;;5050651;28;20052;-75
2022/06/17 01:21:43;;;;;;;14.40;9.20;;;24.60;99.90;;;;;;5050738;28;20079;-75
2022/06/17 01:24:10;;;;;;;18.20;10.43;;;24.60;99.90;;;;;;5050588;28;20044;-75
2022/06/17 01:26:36;;;;;;;10.45;9.35;;;24.50;99.90;;;;;;5051871;28;20029;-75
2022/06/17 01:29:02;;;;;;;10.38;9.52;;;24.50;99.90;;;;;;5050395;28;20195;-76
2022/06/17 01:31:28;;;;;;;13.10;10.10;;;24.50;99.90;;;;;;5050370;28;20060;-76
2022/06/17 01:33:54;;;;;;;10.98;9.07;;;24.50;99.90;;;;;;5051771;28;20052;-75
2022/06/17 01:36:27;;;;;;;9.80;8.88;;;24.50;99.90;;;;;;5051588;28;20057;-76
2022/06/17 01:38:55;;;;;;;10.32;9.30;;;24.50;99.90;;;;;;5050220;28;20032;-76
2022/06/17 01:41:25;;;;;;;10.40;9.35;;;24.50;99.90;;;;;;5051445;28;20274;-75
2022/06/17 01:44:01;;;;;;;10.90;9.82;;;24.50;99.90;;;;;;5051366;28;20223;-75
2022/06/17 01:46:34;;;;;;;10.10;9.18;;;24.40;99.90;;;;;;5050325;28;20490;-75
2022/06/17 01:49:04;;;;;;;11.10;9.30;;;24.50;99.90;;;;;;5051662;28;20033;-75
2022/06/17 01:51:33;;;;;;;12.35;9.40;;;24.50;99.90;;;;;;5051487;28;20103;-76
2022/06/17 01:54:06;;;;;;;10.20;9.20;;;24.60;99.90;;;;;;5051173;28;20021;-76
2022/06/17 01:56:35;;;;;;;9.82;9.00;;;24.60;99.90;;;;;;5050332;28;20025;-75
2022/06/17 01:59:10;;;;;;;10.45;9.50;;;24.60;99.90;;;;;;5051086;28;20049;-76
2022/06/17 02:01:40;;;;;;;9.38;8.55;;;24.50;99.90;;;;;;5051503;28;20357;-75
2022/06/17 02:04:14;;;;;;;10.52;8.80;;;24.60;99.90;;;;;;5049998;28;20028;-75
2022/06/17 02:06:51;;;;;;;10.45;9.45;;;24.60;99.90;;;;;;5051486;28;20036;-75
2022/06/17 02:09:18;;;;;;;12.15;9.40;;;24.60;99.90;;;;;;5051255;28;20112;-76
2022/06/17 02:11:44;;;;;;;9.90;8.95;;;24.60;99.90;;;;;;5051263;28;20033;-75
2022/06/17 02:14:11;;;;;;;14.27;10.00;;;24.60;99.90;;;;;;5049994;28;20060;-76
2022/06/17 02:16:40;;;;;;;9.73;8.80;;;24.60;99.90;;;;;;5051106;28;20040;-76
2022/06/17 02:19:06;;;;;;;10.48;9.35;;;24.50;99.90;;;;;;5051045;28;20104;-76
2022/06/17 02:22:10;;;;;;;10.60;9.48;;;24.50;99.90;;;;;;5051224;28;20452;-75
2022/06/17 02:24:38;;;;;;;10.43;9.38;;;24.50;99.90;;;;;;5046971;28;20056;-76
2022/06/17 02:27:07;;;;;;;10.75;9.57;;;24.50;99.90;;;;;;5050568;28;20009;-75
2022/06/17 02:29:35;;;;;;;11.75;9.48;;;24.50;99.90;;;;;;5051252;28;20029;-76
2022/06/17 02:32:05;;;;;;;10.20;9.27;;;24.50;99.90;;;;;;5051258;28;20113;-75
2022/06/17 02:34:32;;;;;;;14.57;9.95;;;24.40;99.90;;;;;;5050972;28;20482;-76
2022/06/17 02:37:10;;;;;;;11.45;9.10;;;24.30;99.90;;;;;;5051069;28;20033;-75
2022/06/17 02:39:40;;;;;;;17.20;10.18;;;24.30;99.90;;;;;;5050588;28;20078;-75
2022/06/17 02:42:06;;;;;;;10.40;9.45;;;24.30;99.90;;;;;;5049636;28;20434;-75
2022/06/17 02:44:36;;;;;;;10.15;9.15;;;24.30;99.90;;;;;;5050914;28;20053;-76
2022/06/17 02:47:02;;;;;;;10.52;9.38;;;24.30;99.90;;;;;;5051019;28;20045;-75
2022/06/17 02:49:32;;;;;;;12.60;8.90;;;24.20;99.90;;;;;;5049647;28;20025;-75
2022/06/17 02:51:59;;;;;;;9.93;9.05;;;24.20;99.90;;;;;;5051011;28;20053;-75
2022/06/17 02:54:39;;;;;;;10.43;9.07;;;24.20;99.90;;;;;;5050837;28;20490;-76
2022/06/17 02:57:08;;;;;;;10.43;9.43;;;24.20;99.90;;;;;;5050700;28;20037;-76
2022/06/17 02:59:43;;;;;;;10.13;9.05;;;24.10;99.90;;;;;;5050610;28;20049;-75
2022/06/17 03:02:21;;;;;;;10.05;9.13;;;24.10;99.90;;;;;;5050746;28;20087;-75
2022/06/17 03:04:47;;;;;;;12.52;9.18;;;24.10;99.90;;;;;;5050851;28;20021;-76
2022/06/17 03:07:18;;;;;;;10.70;9.60;;;24.00;99.90;;;;;;5053614;28;20494;-75
2022/06/17 03:09:44;;;;;;;11.55;8.68;;;24.00;99.90;;;;;;5054395;28;20029;-75
2022/06/17 03:12:20;;;;;;;9.43;8.38;;;24.00;99.90;;;;;;5052748;28;20098;-76
2022/06/17 03:14:55;;;;;;;9.27;8.25;;;24.00;99.90;;;;;;5054224;28;20029;-75
2022/06/17 03:17:24;;;;;;;11.38;8.43;;;24.00;99.90;;;;;;5052905;28;20596;-76
2022/06/17 03:19:55;;;;;;;8.73;7.82;;;24.00;99.90;;;;;;5052759;28;20063;-75
2022/06/17 03:22:22;;;;;;;8.93;8.05;;;24.00;99.90;;;;;;5054093;28;20486;-76
2022/06/17 03:25:33;;;;;;;9.93;8.13;;;24.00;99.90;;;;;;5054052;28;20173;-75
2022/06/17 03:28:07;;;;;;;9.43;8.45;;;23.90;99.90;;;;;;5052687;28;20068;-75
2022/06/17 03:30:38;;;;;;;12.00;8.57;;;23.90;99.90;;;;;;5054115;28;20104;-76
2022/06/17 03:33:13;;;;;;;8.57;7.72;;;23.90;99.90;;;;;;5053771;28;20021;-75
2022/06/17 03:35:42;;;;;;;8.60;7.55;;;23.90;99.90;;;;;;5053783;28;20483;-75
2022/06/17 03:38:41;;;;;;;9.50;8.05;;;23.90;99.90;;;;;;5053624;28;20028;-75
2022/06/17 03:41:16;;;;;;;9.88;7.53;;;24.00;99.90;;;;;;5053668;28;20021;-75
2022/06/17 03:44:08;;;;;;;8.75;7.78;;;24.00;99.90;;;;;;5052371;28;20025;-75
2022/06/17 03:46:43;;;;;;;9.30;7.70;;;24.00;99.90;;;;;;5052491;28;20051;-76
2022/06/17 03:49:24;;;;;;;10.82;7.82;;;24.00;99.90;;;;;;5053543;28;20025;-76
2022/06/17 03:51:55;;;;;;;7.97;7.30;;;24.00;99.90;;;;;;5053789;28;20394;-75
2022/06/17 03:54:21;;;;;;;8.47;7.33;;;24.00;99.90;;;;;;5053611;28;20389;-75
2022/06/17 03:56:52;;;;;;;13.23;7.55;;;24.00;99.90;;;;;;5053311;28;20029;-75
2022/06/17 03:59:30;;;;;;;7.75;6.70;;;24.00;99.90;;;;;;5053222;28;20076;-75
2022/06/17 04:02:06;;;;;;;11.60;7.03;;;24.00;99.90;;;;;;5053375;28;20043;-75
2022/06/17 04:04:38;;;;;;;8.43;7.43;;;24.00;99.90;;;;;;5052053;28;20021;-75
2022/06/17 04:07:04;;;;;;;7.35;6.72;;;23.90;99.90;;;;;;5053159;28;20263;-75
2022/06/17 04:09:33;;;;;;;9.82;7.25;;;23.90;99.90;;;;;;5053336;28;20039;-75
2022/06/17 04:12:05;;;;;;;7.78;7.10;;;23.90;99.90;;;;;;5053256;28;20394;-75
2022/06/17 04:14:54;;;;;;;7.15;6.30;;;24.00;99.90;;;;;;5051850;28;20074;-75
2022/06/17 04:17:48;;;;;;;8.05;6.32;;;23.90;99.90;;;;;;5053069;28;20552;-76
2022/06/17 04:20:38;;;;;;;8.35;6.68;;;24.00;99.90;;;;;;5052423;28;20120;-75
2022/06/17 04:23:15;;;;;;;7.65;6.70;;;24.00;99.90;;;;;;5053117;28;20017;-76
2022/06/17 04:25:58;;;;;;;7.47;6.78;;;24.00;99.90;;;;;;5052731;28;20037;-75
2022/06/17 04:28:31;;;;;;;8.07;7.28;;;24.00;99.90;;;;;;5052895;28;20028;-75
2022/06/17 04:31:01;;;;;;;8.18;6.50;;;24.00;99.90;;;;;;5052633;28;20028;-75
2022/06/17 04:33:47;;;;;;;8.15;7.32;;;24.00;99.90;;;;;;5052799;28;20029;-75
2022/06/17 04:36:19;;;;;;;10.23;6.72;;;24.00;99.90;;;;;;5052769;28;20544;-75
2022/06/17 04:38:56;;;;;;;7.28;6.50;;;24.10;99.90;;;;;;5052702;28;20719;-75
2022/06/17 04:41:27;;;;;;;11.13;6.38;;;24.10;99.90;;;;;;5051554;28;20013;-75
2022/06/17 04:43:55;;;;;;;;;;;24.00;99.90;;;;;;5048750;28;20021;-76
2022/06/17 04:46:35;;;;;;;6.65;6.00;;;24.00;99.90;;;;;;5050029;28;19911;-75
2022/06/17 04:49:01;;;;;;;6.72;6.03;;;24.00;99.90;;;;;;5049674;28;20025;-75
2022/06/17 04:51:29;;;;;;;13.82;5.93;;;24.10;99.90;;;;;;5051241;28;20052;-75
2022/06/17 04:53:56;;;;;;;9.32;5.53;;;24.20;99.90;;;;;;5050801;28;20057;-75
2022/06/17 04:56:45;;;;;;;6.78;6.15;;;24.30;99.90;;;;;;5049817;28;20444;-75
2022/06/17 04:59:35;;;;;;;8.00;5.95;;;24.30;99.90;;;;;;5046799;28;20041;-75
2022/06/17 05:02:12;;;;;;;7.38;5.97;;;24.40;99.60;;;;;;5048208;28;20352;-75
2022/06/17 05:04:38;;;;;;;7.60;5.88;;;24.40;99.90;;;;;;5052087;28;20021;-75
2022/06/17 05:07:04;;;;;;;8.25;5.82;;;24.50;99.90;;;;;;5052054;28;20027;-75
2022/06/17 05:09:42;;;;;;;9.82;6.13;;;24.60;99.90;;;;;;5052281;28;20389;-75
2022/06/17 05:12:18;;;;;;;6.88;6.28;;;24.60;99.90;;;;;;5032048;28;20382;-75
2022/06/17 05:14:51;;;;;;;6.32;5.80;;;24.70;99.80;;;;;;5031996;28;20049;-75
2022/06/17 05:17:16;;;;;;;7.65;5.45;;;24.90;99.60;;;;;;5030740;28;20025;-75
2022/06/17 05:19:42;;;;;;;6.18;5.22;;;25.00;98.80;;;;;;5031911;28;20036;-75
2022/06/17 05:22:38;;;;;;;5.05;4.60;;;25.10;98.40;;;;;;5031606;28;20479;-75
2022/06/17 05:25:12;;;;;;;8.05;5.35;;;25.30;98.60;;;;;;5030024;28;20017;-75
2022/06/17 05:27:37;;;;;;;5.90;5.40;;;25.40;98.20;;;;;;5029893;28;20026;-75
2022/06/17 05:30:04;;;;;;;5.32;4.85;;;25.40;97.60;;;;;;5028352;28;20029;-75
2022/06/17 05:32:30;;;;;;;7.72;5.93;;;25.50;97.20;;;;;;5028640;28;20036;-75
2022/06/17 05:34:56;;;;;;;6.85;5.28;;;25.60;97.10;;;;;;5028771;28;20033;-75
2022/06/17 05:37:21;;;;;;;5.82;5.28;;;25.60;97.00;;;;;;5030026;28;20056;-76
2022/06/17 05:39:47;;;;;;;8.38;5.38;;;25.70;97.30;;;;;;5033873;28;20542;-75
2022/06/17 05:42:13;;;;;;;6.82;5.18;;;25.70;97.20;;;;;;5051699;28;20106;-75
2022/06/17 05:44:39;;;;;;;6.80;5.50;;;25.70;96.90;;;;;;5051577;28;20441;-75
2022/06/17 05:47:05;;;;;;;9.32;6.35;;;25.80;97.30;;;;;;5051520;28;20482;-76
2022/06/17 05:49:31;;;;;;;8.95;5.80;;;25.70;97.20;;;;;;5050347;28;20032;-76
2022/06/17 05:51:58;;;;;;;6.18;5.57;;;25.70;97.40;;;;;;5052110;28;20021;-76
2022/06/17 05:54:23;;;;;;;6.65;5.43;;;25.80;97.80;;;;;;5052465;28;20540;-76
2022/06/17 05:56:49;;;;;;;7.50;5.78;;;25.80;97.70;;;;;;5052444;28;20024;-75
2022/06/17 05:59:17;;;;;;;8.63;5.68;;;25.90;97.50;;;;;;5052192;28;20045;-76
2022/06/17 06:01:43;;;;;;;8.93;5.45;;;26.00;97.30;;;;;;5052261;28;20013;-75
2022/06/17 06:04:09;;;;;;;7.68;5.20;;;26.10;97.50;;;;;;5052466;28;20433;-75
2022/06/17 06:06:35;;;;;;;6.55;5.40;;;26.20;97.10;;;;;;5052317;28;20013;-75
2022/06/17 06:09:01;;;;;;;6.10;5.53;;;26.30;97.00;;;;;;5052414;28;20368;-75
2022/06/17 06:11:27;;;;;;;7.93;5.30;;;26.30;96.70;;;;;;5052459;28;20103;-75
2022/06/17 06:13:53;;;;;;;6.88;5.72;;;26.40;96.70;;;;;;5052436;28;20048;-75
2022/06/17 06:16:19;;;;;;;14.50;6.07;;;26.50;96.50;;;;;;5052005;28;20025;-75
2022/06/17 06:18:47;;;;;;;5.70;5.20;;;26.60;96.30;;;;;;5051438;28;20025;-75
2022/06/17 06:21:12;;;;;;;10.13;6.05;;;26.60;96.80;;;;;;5052220;28;20017;-76
2022/06/17 06:23:41;;;;;;;6.65;5.85;;;26.60;96.60;;;;;;5051678;28;20505;-75
2022/06/17 06:26:08;;;;;;;6.13;5.70;;;26.70;96.80;;;;;;5051870;28;20018;-75
2022/06/17 06:28:35;;;;;;;10.68;6.30;;;26.70;97.70;;;;;;5049478;28;20033;-75
2022/06/17 06:31:09;;;;;;;7.30;5.88;;;26.80;98.90;;;;;;5049867;28;20025;-75
2022/06/17 06:33:35;;;;;;;7.90;5.97;;;26.80;99.00;;;;;;5049721;28;20021;-75
2022/06/17 06:36:01;;;;;;;9.18;6.28;;;26.90;98.00;;;;;;5050807;28;20079;-75
2022/06/17 06:38:27;;;;;;;6.93;6.30;;;26.90;97.30;;;;;;5051287;28;20399;-75
2022/06/17 06:40:52;;;;;;;6.75;6.15;;;26.90;97.30;;;;;;5052404;28;20021;-75
2022/06/17 06:43:21;;;;;;;6.50;6.00;;;27.00;96.50;;;;;;5055482;28;20032;-75
2022/06/17 06:45:50;;;;;;;8.25;6.80;;;27.10;96.50;;;;;;5054016;28;20017;-75
2022/06/17 06:48:18;;;;;;;7.60;6.30;;;27.10;96.50;;;;;;5055663;28;20370;-75
2022/06/17 06:50:44;;;;;;;9.20;7.25;;;27.20;97.20;;;;;;5055281;28;20299;-75
2022/06/17 06:53:10;;;;;;;7.70;6.93;;;27.20;97.10;;;;;;5055213;28;20482;-76
2022/06/17 06:55:37;;;;;;;7.40;6.70;;;27.30;97.00;;;;;;5055492;28;20478;-75
2022/06/17 06:58:17;;;;;;;8.25;6.70;;;27.30;97.00;;;;;;5055387;28;20395;-75
2022/06/17 07:00:49;;;;;;;13.10;6.70;;;27.30;97.10;;;;;;5055560;28;20468;-75
2022/06/17 07:03:15;;;;;;;;;;;27.30;96.40;;;;;;5056007;28;20026;-75
2022/06/17 07:05:44;;;;;;;7.70;7.00;;;27.20;95.70;;;;;;5054315;28;19904;-74
2022/06/17 07:08:12;;;;;;;12.10;7.07;;;27.20;96.60;;;;;;5055539;28;20056;-75
2022/06/17 07:10:39;;;;;;;13.90;7.85;;;27.30;96.60;;;;;;5055611;28;20021;-74
2022/06/17 07:13:08;;;;;;;14.23;6.75;;;27.30;96.90;;;;;;5055393;28;20056;-75
2022/06/17 07:15:35;;;;;;;9.88;7.25;;;27.30;96.80;;;;;;5054159;28;20458;-74
2022/06/17 07:18:18;;;;;;;7.10;6.22;;;27.40;95.80;;;;;;5054209;28;20063;-74
2022/06/17 07:20:48;;;;;;;8.57;6.35;;;27.40;95.10;;;;;;5055337;28;20102;-74
2022/06/17 07:23:21;;;;;;;7.82;6.18;;;27.40;95.70;;;;;;5055135;28;20052;-75
2022/06/17 07:25:47;;;;;;;6.72;5.20;;;27.40;96.40;;;;;;5055295;28;20460;-74
2022/06/17 07:28:15;;;;;;;6.22;5.57;;;27.40;95.30;;;;;;5055297;28;20079;-74
2022/06/17 07:30:44;;;;;;;6.15;5.57;;;27.50;95.60;;;;;;5055299;28;20075;-75
2022/06/17 07:33:10;;;;;;;5.20;4.78;;;27.50;95.70;;;;;;5055076;28;20100;-74
2022/06/17 07:35:37;;;;;;;8.50;5.50;;;27.60;94.60;;;;;;5053702;28;20021;-75
2022/06/17 07:40:49;;;;;;;10.00;6.78;;;27.70;95.30;;;;;;5044846;28;20055;-74
2022/06/17 07:43:17;;;;;;;8.73;6.63;;;27.60;94.80;;;;;;5034863;28;20056;-73
2022/06/17 07:45:43;;;;;;;11.00;8.85;;;27.60;95.50;;;;;;5034844;28;20079;-73
2022/06/17 07:48:12;;;;;;;10.68;7.93;;;27.50;95.30;;;;;;5033656;28;20105;-74
2022/06/17 07:50:38;;;;;;;12.27;8.65;;;27.50;95.30;;;;;;5033794;28;20096;-74
2022/06/17 07:53:05;;;;;;;10.20;7.32;;;27.50;96.30;;;;;;5033471;28;20049;-77
2022/06/17 07:55:49;;;;;;;9.60;7.03;;;27.50;96.40;;;;;;5033630;28;20472;-77
2022/06/17 07:58:15;;;;;;;9.23;7.68;;;27.50;96.60;;;;;;5033438;28;20519;-77
2022/06/17 08:00:43;;;;;;;8.77;7.70;;;27.50;96.00;;;;;;5033577;28;20056;-77
2022/06/17 08:03:10;;;;;;;11.05;7.32;;;27.60;95.70;;;;;;5033693;28;20434;-78
2022/06/17 08:05:37;;;;;;;8.98;7.20;;;27.60;95.40;;;;;;5033469;28;20494;-77
2022/06/17 08:08:04;;;;;;;8.93;7.82;;;27.60;95.70;;;;;;5033469;28;20100;-78
2022/06/17 08:10:33;;;;;;;9.82;7.32;;;27.60;96.40;;;;;;5033427;28;20049;-77
2022/06/17 08:12:59;;;;;;;9.43;8.18;;;27.70;95.90;;;;;;5033351;28;20100;-77
2022/06/17 08:15:26;;;;;;;10.90;7.75;;;27.70;96.50;;;;;;5033333;28;20029;-77
2022/06/17 08:17:52;;;;;;;9.73;7.82;;;27.60;95.40;;;;;;5033201;28;20100;-77
2022/06/17 08:20:28;;;;;;;11.02;8.18;;;27.70;95.50;;;;;;5033292;28;20030;-77
2022/06/17 08:22:54;;;;;;;13.43;8.05;;;27.70;95.70;;;;;;5033530;28;20017;-77
2022/06/17 08:25:21;;;;;;;9.68;8.15;;;27.80;95.00;;;;;;5053000;28;20029;-77
2022/06/17 08:27:49;;;;;;;9.60;8.10;;;27.80;95.50;;;;;;5054058;28;20021;-77
2022/06/17 08:30:18;;;;;;;9.18;8.35;;;27.80;96.70;;;;;;5054150;28;20482;-77
2022/06/17 08:32:47;;;;;;;9.77;8.77;;;27.80;96.10;;;;;;5053861;28;20032;-77
2022/06/17 08:35:18;;;;;;;9.45;8.55;;;27.80;95.20;;;;;;5054020;28;20017;-77
2022/06/17 08:37:46;;;;;;;12.93;8.27;;;27.80;95.80;;;;;;5053981;28;20025;-77
2022/06/17 08:40:27;;;;;;;13.68;8.25;;;27.80;95.50;;;;;;5053860;28;20025;-77
2022/06/17 08:43:18;;;;;;;12.85;7.70;;;27.90;95.10;;;;;;5054030;28;20390;-77
2022/06/17 08:46:14;;;;;;;11.32;8.50;;;27.80;95.20;;;;;;5053146;28;20021;-77
2022/06/17 08:49:08;;;;;;;9.27;8.00;;;27.90;95.10;;;;;;5053134;28;20036;-76
2022/06/17 08:51:36;;;;;;;8.15;7.35;;;28.00;95.60;;;;;;5051461;28;20043;-76
2022/06/17 08:54:30;;;;;;;8.63;7.68;;;28.20;95.60;;;;;;5052790;28;20039;-76
2022/06/17 08:57:03;;;;;;;10.00;7.95;;;28.30;96.60;;;;;;5052699;28;20104;-77
2022/06/17 08:59:54;;;;;;;9.70;7.75;;;28.30;94.90;;;;;;5052402;28;20051;-77
2022/06/17 09:02:30;;;;;;;12.30;7.22;;;28.40;95.60;;;;;;5053327;28;20025;-76
2022/06/17 09:05:03;;;;;;;8.57;7.68;;;28.60;95.10;;;;;;5052906;28;20024;-77
2022/06/17 09:07:59;;;;;;;8.63;6.93;;;28.80;94.60;;;;;;5053470;28;20382;-77
2022/06/17 09:10:34;;;;;;;9.13;7.05;;;28.80;94.80;;;;;;5053535;28;20032;-77
2022/06/17 09:13:05;;;;;;;10.77;6.93;;;28.90;94.90;;;;;;5053460;28;20159;-77
2022/06/17 09:15:55;;;;;;;7.60;6.95;;;28.90;94.90;;;;;;5053305;28;20025;-76
2022/06/17 09:18:24;;;;;;;15.23;7.05;;;29.00;94.80;;;;;;5052490;28;20017;-77
2022/06/17 09:20:55;;;;;;;11.82;7.40;;;29.00;92.90;;;;;;5051968;28;20025;-76
2022/06/17 09:23:25;;;;;;;12.80;7.25;;;28.90;91.90;;;;;;5049566;28;20017;-77
2022/06/17 09:25:54;;;;;;;7.78;6.95;;;29.20;92.10;;;;;;5052111;28;20482;-77
2022/06/17 09:28:34;;;;;;;7.95;7.25;;;29.20;92.00;;;;;;5052682;28;20032;-76
2022/06/17 09:31:32;;;;;;;9.23;6.78;;;29.10;91.70;;;;;;5051935;28;20036;-76
2022/06/17 09:34:04;;;;;;;8.15;6.43;;;29.30;90.80;;;;;;5049823;28;20445;-77
2022/06/17 09:36:38;;;;;;;12.10;6.40;;;29.30;90.60;;;;;;5051752;28;20021;-76
2022/06/17 09:39:11;;;;;;;10.85;6.45;;;29.30;90.00;;;;;;5051760;28;20036;-77
2022/06/17 09:41:49;;;;;;;6.97;6.15;;;29.40;92.10;;;;;;5051855;28;20021;-77
2022/06/17 09:44:33;;;;;;;9.75;6.65;;;29.50;92.50;;;;;;5051895;28;20183;-77
2022/06/17 09:47:08;;;;;;;8.23;6.53;;;29.50;92.20;;;;;;5050989;28;20028;-76
2022/06/17 09:50:04;;;;;;;12.10;7.32;;;29.50;92.90;;;;;;5051691;28;20025;-77
2022/06/17 09:52:40;;;;;;;9.00;7.20;;;29.60;90.60;;;;;;5051020;28;20379;-77
2022/06/17 09:55:32;;;;;;;6.97;6.38;;;29.70;90.10;;;;;;5051488;28;20105;-77
2022/06/17 09:58:03;;;;;;;6.68;6.18;;;29.70;90.30;;;;;;5050187;28;20048;-76
2022/06/17 10:00:55;;;;;;;7.22;6.05;;;29.80;90.30;;;;;;5051668;28;20040;-77
2022/06/17 10:03:22;;;;;;;;;;;29.90;88.50;;;;;;5049069;28;20039;-77
2022/06/17 10:06:03;;;;;;;8.43;6.28;;;30.00;90.20;;;;;;5051743;28;19905;-77
2022/06/17 10:08:38;;;;;;;11.20;6.25;;;30.00;90.50;;;;;;5051434;28;20039;-77
2022/06/17 10:11:28;;;;;;;6.28;5.70;;;30.00;91.20;;;;;;5051469;28;20028;-76
2022/06/17 10:14:38;;;;;;;6.78;6.07;;;30.10;88.10;;;;;;5051486;28;20025;-77
2022/06/17 10:20:18;;;;;;;10.45;7.75;;;30.40;87.00;;;;;;5054836;28;20043;-77
2022/06/17 10:22:59;;;;;;;8.80;6.53;;;30.50;88.70;;;;;;5055387;28;20032;-76
2022/06/17 10:25:30;;;;;;;7.68;7.00;;;30.60;87.30;;;;;;5055486;28;20017;-76
2022/06/17 10:28:34;;;;;;;8.63;7.75;;;30.60;87.20;;;;;;5055356;28;20021;-77
2022/06/17 10:31:28;;;;;;;18.02;7.78;;;30.60;89.90;;;;;;5055489;28;20021;-76
2022/06/17 10:33:56;;;;;;;8.32;7.13;;;30.80;85.90;;;;;;5052764;28;20039;-77
2022/06/17 10:36:22;;;;;;;12.77;8.27;;;30.90;88.20;;;;;;5054774;28;20486;-77
2022/06/17 10:38:48;;;;;;;9.02;8.13;;;30.90;87.90;;;;;;5055054;28;20036;-77
2022/06/17 10:41:16;;;;;;;8.25;7.40;;;30.90;87.20;;;;;;5055037;28;20075;-77
2022/06/17 10:43:46;;;;;;;12.82;7.75;;;30.90;84.50;;;;;;5053660;28;20025;-76
2022/06/17 10:46:21;;;;;;;10.57;7.15;;;30.90;85.10;;;;;;5054956;28;20032;-76
2022/06/17 10:49:09;;;;;;;8.98;8.02;;;31.00;86.00;;;;;;5056042;28;20021;-77
2022/06/17 10:51:37;;;;;;;10.70;7.60;;;31.20;84.60;;;;;;5054656;28;20024;-77
2022/06/17 10:54:13;;;;;;;10.38;7.35;;;31.40;88.60;;;;;;5054320;28;20036;-77
2022/06/17 10:56:55;;;;;;;9.45;8.32;;;31.50;88.30;;;;;;5054360;28;20029;-77
2022/06/17 10:59:42;;;;;;;9.27;7.72;;;31.60;88.40;;;;;;5052644;28;20563;-76
2022/06/17 11:02:30;;;;;;;8.52;7.72;;;31.60;85.30;;;;;;5050429;28;20048;-75
2022/06/17 11:05:02;;;;;;;9.07;8.15;;;31.80;86.10;;;;;;5052562;28;20104;-77
2022/06/17 11:07:51;;;;;;;15.30;8.98;;;31.90;82.00;;;;;;5052591;28;20025;-78
2022/06/17 11:10:20;;;;;;;10.68;8.07;;;31.90;80.00;;;;;;5052953;28;20155;-76
2022/06/17 11:13:00;;;;;;;16.13;8.23;;;31.90;80.60;;;;;;5051194;28;20032;-76
2022/06/17 11:15:33;;;;;;;9.00;8.13;;;32.00;77.80;;;;;;5052930;28;20024;-76
2022/06/17 11:18:04;;;;;;;9.48;7.95;;;31.90;81.10;;;;;;5052050;28;20032;-76
2022/06/17 11:20:33;;;;;;;11.57;7.53;;;31.80;79.30;;;;;;5052369;28;20359;-76
2022/06/17 11:23:02;;;;;;;13.27;7.65;;;31.80;78.30;;;;;;5051779;28;20533;-76
2022/06/17 11:25:36;;;;;;;9.68;8.57;;;31.90;79.70;;;;;;5050880;28;20124;-77
2022/06/17 11:28:17;;;;;;;13.73;8.90;;;32.10;78.00;;;;;;5051026;28;20029;-77
2022/06/17 11:30:59;;;;;;;10.35;7.88;;;32.10;77.00;;;;;;5051256;28;20176;-76
2022/06/17 11:33:34;;;;;;;9.15;7.60;;;32.30;81.30;;;;;;5052350;28;20560;-76
2022/06/17 11:36:09;;;;;;;9.45;8.45;;;32.50;81.50;;;;;;5055363;28;20509;-77
2022/06/17 11:38:35;;;;;;;10.85;8.55;;;32.60;79.80;;;;;;5055350;28;20024;-77
2022/06/17 11:41:01;;;;;;;12.55;8.35;;;32.50;79.70;;;;;;5055297;28;20471;-77
2022/06/17 11:43:36;;;;;;;7.55;6.95;;;32.60;78.70;;;;;;5054962;28;20032;-77
2022/06/17 11:46:09;;;;;;;9.25;8.35;;;32.70;79.00;;;;;;5055113;28;20009;-78
2022/06/17 11:48:43;;;;;;;11.98;7.68;;;32.60;79.20;;;;;;5054854;28;20032;-77
2022/06/17 11:51:17;;;;;;;15.68;8.10;;;32.60;77.60;;;;;;5055191;28;20021;-77
2022/06/17 11:53:52;;;;;;;9.27;8.45;;;32.70;79.10;;;;;;5054996;28;20467;-76
2022/06/17 11:56:51;;;;;;;8.98;8.07;;;32.80;76.50;;;;;;5054998;28;20025;-77
2022/06/17 11:59:26;;;;;;;8.80;7.60;;;33.00;76.10;;;;;;5042586;28;20056;-77
2022/06/17 12:01:55;;;;;;;8.48;6.88;;;33.20;76.60;;;;;;5053500;28;20111;-77
2022/06/17 12:05:10;;;;;;;10.20;7.10;;;33.30;76.20;;;;;;5054486;28;20029;-77
2022/06/17 12:07:48;;;;;;;9.52;7.35;;;33.50;73.30;;;;;;5046530;28;20438;-77
2022/06/17 12:10:19;;;;;;;12.73;7.80;;;33.50;73.20;;;;;;5054479;28;20040;-77
2022/06/17 12:12:47;;;;;;;12.15;6.85;;;33.60;71.60;;;;;;5054318;28;20501;-77
2022/06/17 12:15:27;;;;;;;9.82;7.07;;;33.60;71.50;;;;;;5054317;28;20013;-77
2022/06/17 12:17:56;;;;;;;13.60;8.63;;;33.50;74.40;;;;;;5054373;28;20029;-77
2022/06/17 12:20:37;;;;;;;8.45;6.93;;;33.40;74.40;;;;;;5053033;28;20162;-77
2022/06/17 12:23:15;;;;;;;10.18;7.25;;;33.40;74.60;;;;;;5054327;28;20021;-77
2022/06/17 12:25:51;;;;;;;7.40;6.85;;;33.70;73.50;;;;;;5054116;28;20386;-77
2022/06/17 12:28:16;;;;;;;7.95;6.20;;;33.90;70.30;;;;;;5054166;28;20060;-77
2022/06/17 12:31:14;;;;;;;11.23;7.93;;;34.00;69.20;;;;;;5054327;28;20056;-77
2022/06/17 12:34:16;;;;;;;10.40;7.15;;;34.00;70.90;;;;;;5049709;28;20128;-77
2022/06/17 12:36:52;;;;;;;7.13;6.57;;;34.10;67.00;;;;;;5034322;28;20112;-76
2022/06/17 12:39:27;;;;;;;12.00;6.95;;;34.20;67.20;;;;;;5052346;28;20028;-76
2022/06/17 12:41:59;;;;;;;7.55;6.88;;;34.30;64.20;;;;;;5053407;28;20035;-77
2022/06/17 12:44:48;;;;;;;7.13;6.47;;;34.20;64.70;;;;;;5053896;28;20025;-77
2022/06/17 12:47:34;;;;;;;7.55;6.15;;;34.30;64.70;;;;;;5052407;28;20029;-76
2022/06/17 12:53:36;;;;;;;6.85;6.35;;;34.20;66.20;;;;;;5051968;28;20052;-74
2022/06/17 12:56:05;;;;;;;7.15;6.43;;;34.20;64.80;;;;;;5051131;28;20036;-74
2022/06/17 12:58:58;;;;;;;7.32;6.65;;;34.00;64.50;;;;;;5050952;28;20048;-74
2022/06/17 13:01:45;;;;;;;6.93;6.53;;;34.10;65.10;;;;;;5052476;28;20025;-74
2022/06/17 13:04:48;;;;;;;9.30;6.90;;;34.20;66.50;;;;;;5051059;28;20036;-74
2022/06/17 13:07:23;;;;;;;6.60;6.18;;;34.30;66.50;;;;;;5051034;28;20033;-74
2022/06/17 13:13:36;;;;;;;7.38;6.63;;;34.30;61.80;;;;;;5052071;28;20571;-74
2022/06/17 13:16:30;;;;;;;9.13;6.70;;;34.20;61.40;;;;;;5042099;28;20037;-75
2022/06/17 13:19:22;;;;;;;9.15;6.90;;;34.00;60.80;;;;;;5048515;28;20086;-74
2022/06/17 13:22:17;;;;;;;7.78;5.72;;;34.00;63.30;;;;;;5050488;28;20032;-74
2022/06/17 13:24:55;;;;;;;7.82;7.20;;;34.30;64.80;;;;;;5051792;28;20394;-74
2022/06/17 13:27:34;;;;;;;7.72;6.65;;;34.40;64.00;;;;;;5050452;28;20025;-74
2022/06/17 13:30:22;;;;;;;7.97;6.07;;;34.20;65.20;;;;;;5051953;28;20021;-74
2022/06/17 13:33:06;;;;;;;6.85;6.25;;;34.10;62.20;;;;;;5051853;28;20070;-74
2022/06/17 13:35:39;;;;;;;8.65;6.05;;;34.10;60.30;;;;;;5051759;28;20021;-74